sensor_id;sensor_type;location;lat;lon;timestamp;P1;durP1;ratioP1;P2;durP2;ratioP2
5199;SDS011;2619;47.868;11.892;2023-05-07T00:00:33;14.47;;;6.80;;
5199;SDS011;2619;47.868;11.892;2023-05-07T00:02:59;14.97;;;7.50;;
5199;SDS011;2619;47.868;11.892;2023-05-07T00:05:25;8.93;;;7.40;;
5199;SDS011;2619;47.868;11.892;2023-05-07T00:07:50;7.50;;;6.57;;
5199;SDS011;2619;47.868;11.892;2023-05-07T00:10:17;12.27;;;7.50;;
5199;SDS011;2619;47.868;11.892;2023-05-07T00:12:43;9.60;;;7.47;;
5199;SDS011;2619;47.868;11.892;2023-05-07T00:15:09;15.60;;;8.00;;
5199;SDS011;2619;47.868;11.892;2023-05-07T00:17:35;16.20;;;7.40;;
5199;SDS011;2619;47.868;11.892;2023-05-07T00:20:01;13.63;;;8.00;;
5199;SDS011;2619;47.868;11.892;2023-05-07T00:22:28;14.40;;;7.40;;
5199;SDS011;2619;47.868;11.892;2023-05-07T00:24:55;8.57;;;7.20;;
5199;SDS011;2619;47.868;11.892;2023-05-07T00:27:20;12.50;;;7.40;;
5199;SDS011;2619;47.868;11.892;2023-05-07T00:29:46;11.77;;;7.40;;
5199;SDS011;2619;47.868;11.892;2023-05-07T00:32:12;11.90;;;8.10;;
5199;SDS011;2619;47.868;11.892;2023-05-07T00:34:37;12.60;;;7.40;;
5199;SDS011;2619;47.868;11.892;2023-05-07T00:37:04;10.27;;;7.50;;
5199;SDS011;2619;47.868;11.892;2023-05-07T00:39:30;8.97;;;7.23;;
5199;SDS011;2619;47.868;11.892;2023-05-07T00:41:55;8.30;;;6.60;;
5199;SDS011;2619;47.868;11.892;2023-05-07T00:44:21;9.90;;;7.60;;
5199;SDS011;2619;47.868;11.892;2023-05-07T00:46:48;11.13;;;8.70;;
5199;SDS011;2619;47.868;11.892;2023-05-07T00:49:14;12.03;;;8.20;;
5199;SDS011;2619;47.868;11.892;2023-05-07T00:51:40;11.53;;;7.60;;
5199;SDS011;2619;47.868;11.892;2023-05-07T00:54:06;9.20;;;7.50;;
5199;SDS011;2619;47.868;11.892;2023-05-07T00:56:33;10.60;;;7.70;;
5199;SDS011;2619;47.868;11.892;2023-05-07T00:59:00;13.87;;;7.60;;
5199;SDS011;2619;47.868;11.892;2023-05-07T01:01:26;12.17;;;7.20;;
5199;SDS011;2619;47.868;11.892;2023-05-07T01:03:52;9.47;;;6.97;;
5199;SDS011;2619;47.868;11.892;2023-05-07T01:06:18;11.53;;;7.20;;
5199;SDS011;2619;47.868;11.892;2023-05-07T01:08:46;10.30;;;6.63;;
5199;SDS011;2619;47.868;11.892;2023-05-07T01:11:12;8.40;;;6.97;;
5199;SDS011;2619;47.868;11.892;2023-05-07T01:13:38;13.77;;;8.00;;
5199;SDS011;2619;47.868;11.892;2023-05-07T01:16:05;8.87;;;7.27;;
5199;SDS011;2619;47.868;11.892;2023-05-07T01:18:31;10.40;;;6.50;;
5199;SDS011;2619;47.868;11.892;2023-05-07T01:20:58;15.70;;;7.10;;
5199;SDS011;2619;47.868;11.892;2023-05-07T01:23:26;15.20;;;7.40;;
5199;SDS011;2619;47.868;11.892;2023-05-07T01:25:53;15.87;;;7.90;;
5199;SDS011;2619;47.868;11.892;2023-05-07T01:28:19;14.00;;;8.00;;
5199;SDS011;2619;47.868;11.892;2023-05-07T01:30:47;13.70;;;9.00;;
5199;SDS011;2619;47.868;11.892;2023-05-07T01:33:18;11.33;;;7.60;;
5199;SDS011;2619;47.868;11.892;2023-05-07T01:35:47;11.37;;;7.77;;
5199;SDS011;2619;47.868;11.892;2023-05-07T01:38:16;11.23;;;7.57;;
5199;SDS011;2619;47.868;11.892;2023-05-07T01:40:43;17.73;;;7.83;;
5199;SDS011;2619;47.868;11.892;2023-05-07T01:43:09;12.10;;;7.27;;
5199;SDS011;2619;47.868;11.892;2023-05-07T01:45:35;11.80;;;7.20;;
5199;SDS011;2619;47.868;11.892;2023-05-07T01:48:01;10.23;;;6.80;;
5199;SDS011;2619;47.868;11.892;2023-05-07T01:50:28;10.00;;;6.80;;
5199;SDS011;2619;47.868;11.892;2023-05-07T01:52:54;8.87;;;6.40;;
5199;SDS011;2619;47.868;11.892;2023-05-07T01:55:20;8.90;;;7.27;;
5199;SDS011;2619;47.868;11.892;2023-05-07T01:57:45;10.60;;;7.90;;
5199;SDS011;2619;47.868;11.892;2023-05-07T02:00:11;8.90;;;6.03;;
5199;SDS011;2619;47.868;11.892;2023-05-07T02:02:37;11.70;;;8.10;;
5199;SDS011;2619;47.868;11.892;2023-05-07T02:05:03;16.30;;;7.17;;
5199;SDS011;2619;47.868;11.892;2023-05-07T02:07:29;10.70;;;6.80;;
5199;SDS011;2619;47.868;11.892;2023-05-07T02:09:55;12.33;;;6.67;;
5199;SDS011;2619;47.868;11.892;2023-05-07T02:12:21;10.07;;;6.83;;
5199;SDS011;2619;47.868;11.892;2023-05-07T02:14:47;10.77;;;7.10;;
5199;SDS011;2619;47.868;11.892;2023-05-07T02:17:13;9.67;;;6.10;;
5199;SDS011;2619;47.868;11.892;2023-05-07T02:19:38;9.80;;;7.10;;
5199;SDS011;2619;47.868;11.892;2023-05-07T02:22:04;8.67;;;7.10;;
5199;SDS011;2619;47.868;11.892;2023-05-07T02:24:29;10.40;;;7.47;;
5199;SDS011;2619;47.868;11.892;2023-05-07T02:26:55;15.13;;;7.77;;
5199;SDS011;2619;47.868;11.892;2023-05-07T02:29:21;12.33;;;8.40;;
5199;SDS011;2619;47.868;11.892;2023-05-07T02:31:46;8.60;;;7.20;;
5199;SDS011;2619;47.868;11.892;2023-05-07T02:34:15;10.80;;;8.07;;
5199;SDS011;2619;47.868;11.892;2023-05-07T02:36:44;10.67;;;8.03;;
5199;SDS011;2619;47.868;11.892;2023-05-07T02:39:10;12.90;;;8.13;;
5199;SDS011;2619;47.868;11.892;2023-05-07T02:41:37;11.63;;;7.90;;
5199;SDS011;2619;47.868;11.892;2023-05-07T02:44:02;12.13;;;7.70;;
5199;SDS011;2619;47.868;11.892;2023-05-07T02:46:28;12.80;;;7.60;;
5199;SDS011;2619;47.868;11.892;2023-05-07T02:48:54;11.83;;;8.30;;
5199;SDS011;2619;47.868;11.892;2023-05-07T02:51:20;8.87;;;7.30;;
5199;SDS011;2619;47.868;11.892;2023-05-07T02:53:47;16.17;;;8.00;;
5199;SDS011;2619;47.868;11.892;2023-05-07T02:56:12;13.50;;;7.27;;
5199;SDS011;2619;47.868;11.892;2023-05-07T02:58:38;9.70;;;7.73;;
5199;SDS011;2619;47.868;11.892;2023-05-07T03:01:09;11.03;;;7.70;;
5199;SDS011;2619;47.868;11.892;2023-05-07T03:03:35;8.67;;;7.20;;
5199;SDS011;2619;47.868;11.892;2023-05-07T03:06:01;14.53;;;7.20;;
5199;SDS011;2619;47.868;11.892;2023-05-07T03:08:27;9.50;;;7.50;;
5199;SDS011;2619;47.868;11.892;2023-05-07T03:10:52;9.90;;;7.70;;
5199;SDS011;2619;47.868;11.892;2023-05-07T03:13:18;13.43;;;7.77;;
5199;SDS011;2619;47.868;11.892;2023-05-07T03:15:43;10.20;;;7.70;;
5199;SDS011;2619;47.868;11.892;2023-05-07T03:18:09;10.30;;;7.03;;
5199;SDS011;2619;47.868;11.892;2023-05-07T03:20:35;13.90;;;8.00;;
5199;SDS011;2619;47.868;11.892;2023-05-07T03:23:01;15.03;;;7.23;;
5199;SDS011;2619;47.868;11.892;2023-05-07T03:25:27;9.20;;;7.10;;
5199;SDS011;2619;47.868;11.892;2023-05-07T03:27:52;11.33;;;7.63;;
5199;SDS011;2619;47.868;11.892;2023-05-07T03:30:18;12.70;;;7.40;;
5199;SDS011;2619;47.868;11.892;2023-05-07T03:32:44;11.53;;;7.40;;
5199;SDS011;2619;47.868;11.892;2023-05-07T03:35:09;10.63;;;7.80;;
5199;SDS011;2619;47.868;11.892;2023-05-07T03:37:35;9.30;;;6.57;;
5199;SDS011;2619;47.868;11.892;2023-05-07T03:40:00;9.33;;;7.30;;
5199;SDS011;2619;47.868;11.892;2023-05-07T03:42:27;10.63;;;7.10;;
5199;SDS011;2619;47.868;11.892;2023-05-07T03:44:53;7.73;;;6.90;;
5199;SDS011;2619;47.868;11.892;2023-05-07T03:47:19;12.70;;;8.17;;
5199;SDS011;2619;47.868;11.892;2023-05-07T03:49:44;10.80;;;7.20;;
5199;SDS011;2619;47.868;11.892;2023-05-07T03:52:10;17.50;;;7.67;;
5199;SDS011;2619;47.868;11.892;2023-05-07T03:54:36;14.40;;;8.00;;
5199;SDS011;2619;47.868;11.892;2023-05-07T03:57:01;17.90;;;8.37;;
5199;SDS011;2619;47.868;11.892;2023-05-07T03:59:27;14.07;;;7.10;;
5199;SDS011;2619;47.868;11.892;2023-05-07T04:01:52;10.60;;;8.20;;
5199;SDS011;2619;47.868;11.892;2023-05-07T04:04:18;13.17;;;8.00;;
5199;SDS011;2619;47.868;11.892;2023-05-07T04:06:43;11.97;;;8.03;;
5199;SDS011;2619;47.868;11.892;2023-05-07T04:09:09;10.10;;;7.07;;
5199;SDS011;2619;47.868;11.892;2023-05-07T04:11:35;13.57;;;7.10;;
5199;SDS011;2619;47.868;11.892;2023-05-07T04:14:01;14.40;;;7.60;;
5199;SDS011;2619;47.868;11.892;2023-05-07T04:16:26;13.10;;;7.70;;
5199;SDS011;2619;47.868;11.892;2023-05-07T04:18:52;11.23;;;7.50;;
5199;SDS011;2619;47.868;11.892;2023-05-07T04:21:18;11.30;;;8.37;;
5199;SDS011;2619;47.868;11.892;2023-05-07T04:23:45;10.63;;;8.23;;
5199;SDS011;2619;47.868;11.892;2023-05-07T04:26:11;15.53;;;8.80;;
5199;SDS011;2619;47.868;11.892;2023-05-07T04:28:38;10.03;;;7.80;;
5199;SDS011;2619;47.868;11.892;2023-05-07T04:31:04;15.23;;;12.80;;
5199;SDS011;2619;47.868;11.892;2023-05-07T04:33:30;9.33;;;8.27;;
5199;SDS011;2619;47.868;11.892;2023-05-07T04:35:56;10.27;;;8.20;;
5199;SDS011;2619;47.868;11.892;2023-05-07T04:38:22;14.87;;;8.40;;
5199;SDS011;2619;47.868;11.892;2023-05-07T04:40:48;11.57;;;7.53;;
5199;SDS011;2619;47.868;11.892;2023-05-07T04:43:14;11.77;;;7.23;;
5199;SDS011;2619;47.868;11.892;2023-05-07T04:45:41;9.67;;;7.13;;
5199;SDS011;2619;47.868;11.892;2023-05-07T04:48:07;11.63;;;7.50;;
5199;SDS011;2619;47.868;11.892;2023-05-07T04:50:33;20.03;;;8.40;;
5199;SDS011;2619;47.868;11.892;2023-05-07T04:52:59;11.60;;;7.63;;
5199;SDS011;2619;47.868;11.892;2023-05-07T04:55:24;10.83;;;7.70;;
5199;SDS011;2619;47.868;11.892;2023-05-07T04:57:51;11.10;;;8.10;;
5199;SDS011;2619;47.868;11.892;2023-05-07T05:00:17;19.83;;;8.40;;
5199;SDS011;2619;47.868;11.892;2023-05-07T05:02:44;20.07;;;8.20;;
5199;SDS011;2619;47.868;11.892;2023-05-07T05:05:10;15.73;;;8.07;;
5199;SDS011;2619;47.868;11.892;2023-05-07T05:07:36;10.83;;;9.73;;
5199;SDS011;2619;47.868;11.892;2023-05-07T05:10:02;11.93;;;8.43;;
5199;SDS011;2619;47.868;11.892;2023-05-07T05:12:28;12.70;;;9.90;;
5199;SDS011;2619;47.868;11.892;2023-05-07T05:14:55;12.67;;;11.43;;
5199;SDS011;2619;47.868;11.892;2023-05-07T05:17:20;11.67;;;9.97;;
5199;SDS011;2619;47.868;11.892;2023-05-07T05:19:46;12.03;;;8.80;;
5199;SDS011;2619;47.868;11.892;2023-05-07T05:22:12;11.40;;;7.47;;
5199;SDS011;2619;47.868;11.892;2023-05-07T05:24:37;11.17;;;8.70;;
5199;SDS011;2619;47.868;11.892;2023-05-07T05:27:03;12.23;;;6.33;;
5199;SDS011;2619;47.868;11.892;2023-05-07T05:29:29;7.00;;;5.80;;
5199;SDS011;2619;47.868;11.892;2023-05-07T05:31:56;7.37;;;5.77;;
5199;SDS011;2619;47.868;11.892;2023-05-07T05:34:22;5.73;;;4.17;;
5199;SDS011;2619;47.868;11.892;2023-05-07T05:36:47;9.17;;;4.13;;
5199;SDS011;2619;47.868;11.892;2023-05-07T05:39:13;6.17;;;5.43;;
5199;SDS011;2619;47.868;11.892;2023-05-07T05:41:39;8.00;;;5.27;;
5199;SDS011;2619;47.868;11.892;2023-05-07T05:44:05;8.13;;;4.40;;
5199;SDS011;2619;47.868;11.892;2023-05-07T05:46:31;4.97;;;4.47;;
5199;SDS011;2619;47.868;11.892;2023-05-07T05:48:57;8.40;;;5.30;;
5199;SDS011;2619;47.868;11.892;2023-05-07T05:51:22;6.17;;;4.80;;
5199;SDS011;2619;47.868;11.892;2023-05-07T05:53:48;4.60;;;4.10;;
5199;SDS011;2619;47.868;11.892;2023-05-07T05:56:14;6.93;;;4.07;;
5199;SDS011;2619;47.868;11.892;2023-05-07T05:58:40;6.70;;;5.33;;
5199;SDS011;2619;47.868;11.892;2023-05-07T06:01:06;6.00;;;5.13;;
5199;SDS011;2619;47.868;11.892;2023-05-07T06:03:32;6.50;;;5.50;;
5199;SDS011;2619;47.868;11.892;2023-05-07T06:05:58;4.80;;;4.30;;
5199;SDS011;2619;47.868;11.892;2023-05-07T06:08:25;5.60;;;4.37;;
5199;SDS011;2619;47.868;11.892;2023-05-07T06:10:50;5.40;;;4.20;;
5199;SDS011;2619;47.868;11.892;2023-05-07T06:13:16;7.47;;;5.23;;
5199;SDS011;2619;47.868;11.892;2023-05-07T06:15:42;5.27;;;4.30;;
5199;SDS011;2619;47.868;11.892;2023-05-07T06:18:07;6.07;;;4.00;;
5199;SDS011;2619;47.868;11.892;2023-05-07T06:20:33;5.27;;;4.50;;
5199;SDS011;2619;47.868;11.892;2023-05-07T06:22:58;6.13;;;4.93;;
5199;SDS011;2619;47.868;11.892;2023-05-07T06:25:24;5.60;;;4.60;;
5199;SDS011;2619;47.868;11.892;2023-05-07T06:27:49;5.83;;;4.70;;
5199;SDS011;2619;47.868;11.892;2023-05-07T06:30:15;5.90;;;5.30;;
5199;SDS011;2619;47.868;11.892;2023-05-07T06:32:41;6.47;;;5.60;;
5199;SDS011;2619;47.868;11.892;2023-05-07T06:35:06;6.40;;;5.80;;
5199;SDS011;2619;47.868;11.892;2023-05-07T06:37:32;6.03;;;5.43;;
5199;SDS011;2619;47.868;11.892;2023-05-07T06:39:58;6.37;;;4.93;;
5199;SDS011;2619;47.868;11.892;2023-05-07T06:42:23;5.50;;;5.00;;
5199;SDS011;2619;47.868;11.892;2023-05-07T06:44:49;6.13;;;5.37;;
5199;SDS011;2619;47.868;11.892;2023-05-07T06:47:15;6.10;;;5.50;;
5199;SDS011;2619;47.868;11.892;2023-05-07T06:49:40;8.33;;;5.50;;
5199;SDS011;2619;47.868;11.892;2023-05-07T06:52:06;6.33;;;5.03;;
5199;SDS011;2619;47.868;11.892;2023-05-07T06:54:31;5.33;;;4.80;;
5199;SDS011;2619;47.868;11.892;2023-05-07T06:56:57;6.00;;;5.50;;
5199;SDS011;2619;47.868;11.892;2023-05-07T06:59:23;6.20;;;5.60;;
5199;SDS011;2619;47.868;11.892;2023-05-07T07:01:49;5.90;;;4.80;;
5199;SDS011;2619;47.868;11.892;2023-05-07T07:04:14;6.10;;;4.67;;
5199;SDS011;2619;47.868;11.892;2023-05-07T07:06:40;5.60;;;4.30;;
5199;SDS011;2619;47.868;11.892;2023-05-07T07:09:05;5.80;;;5.13;;
5199;SDS011;2619;47.868;11.892;2023-05-07T07:11:31;6.00;;;4.90;;
5199;SDS011;2619;47.868;11.892;2023-05-07T07:13:57;5.03;;;4.20;;
5199;SDS011;2619;47.868;11.892;2023-05-07T07:16:23;6.87;;;4.57;;
5199;SDS011;2619;47.868;11.892;2023-05-07T07:18:49;5.97;;;5.37;;
5199;SDS011;2619;47.868;11.892;2023-05-07T07:21:15;5.33;;;4.77;;
5199;SDS011;2619;47.868;11.892;2023-05-07T07:23:41;6.50;;;5.00;;
5199;SDS011;2619;47.868;11.892;2023-05-07T07:26:06;7.10;;;5.03;;
5199;SDS011;2619;47.868;11.892;2023-05-07T07:28:32;5.53;;;4.10;;
5199;SDS011;2619;47.868;11.892;2023-05-07T07:30:57;6.70;;;4.30;;
5199;SDS011;2619;47.868;11.892;2023-05-07T07:33:23;4.40;;;3.80;;
5199;SDS011;2619;47.868;11.892;2023-05-07T07:35:48;5.00;;;4.50;;
5199;SDS011;2619;47.868;11.892;2023-05-07T07:38:14;5.60;;;4.70;;
5199;SDS011;2619;47.868;11.892;2023-05-07T07:40:40;4.80;;;4.20;;
5199;SDS011;2619;47.868;11.892;2023-05-07T07:43:05;6.07;;;5.20;;
5199;SDS011;2619;47.868;11.892;2023-05-07T07:45:31;7.10;;;4.53;;
5199;SDS011;2619;47.868;11.892;2023-05-07T07:47:57;5.50;;;4.90;;
5199;SDS011;2619;47.868;11.892;2023-05-07T07:50:22;5.30;;;4.80;;
5199;SDS011;2619;47.868;11.892;2023-05-07T07:52:48;5.17;;;4.60;;
5199;SDS011;2619;47.868;11.892;2023-05-07T07:55:13;5.50;;;5.00;;
5199;SDS011;2619;47.868;11.892;2023-05-07T07:57:43;5.70;;;5.17;;
5199;SDS011;2619;47.868;11.892;2023-05-07T08:00:08;8.27;;;5.30;;
5199;SDS011;2619;47.868;11.892;2023-05-07T08:02:34;6.03;;;4.90;;
5199;SDS011;2619;47.868;11.892;2023-05-07T08:05:00;5.63;;;5.13;;
5199;SDS011;2619;47.868;11.892;2023-05-07T08:07:25;6.30;;;4.80;;
5199;SDS011;2619;47.868;11.892;2023-05-07T08:09:51;5.13;;;4.63;;
5199;SDS011;2619;47.868;11.892;2023-05-07T08:12:17;6.20;;;5.17;;
5199;SDS011;2619;47.868;11.892;2023-05-07T08:14:43;5.53;;;4.43;;
5199;SDS011;2619;47.868;11.892;2023-05-07T08:17:09;4.90;;;4.10;;
5199;SDS011;2619;47.868;11.892;2023-05-07T08:19:35;6.30;;;4.13;;
5199;SDS011;2619;47.868;11.892;2023-05-07T08:22:02;6.57;;;5.07;;
5199;SDS011;2619;47.868;11.892;2023-05-07T08:24:29;7.10;;;4.07;;
5199;SDS011;2619;47.868;11.892;2023-05-07T08:26:54;4.60;;;3.87;;
5199;SDS011;2619;47.868;11.892;2023-05-07T08:29:20;5.33;;;4.67;;
5199;SDS011;2619;47.868;11.892;2023-05-07T08:31:45;4.90;;;3.60;;
5199;SDS011;2619;47.868;11.892;2023-05-07T08:34:11;5.70;;;4.97;;
5199;SDS011;2619;47.868;11.892;2023-05-07T08:36:37;4.57;;;4.17;;
5199;SDS011;2619;47.868;11.892;2023-05-07T08:39:02;5.73;;;4.70;;
5199;SDS011;2619;47.868;11.892;2023-05-07T08:41:28;4.53;;;4.13;;
5199;SDS011;2619;47.868;11.892;2023-05-07T08:43:54;5.40;;;4.63;;
5199;SDS011;2619;47.868;11.892;2023-05-07T08:46:25;5.50;;;4.90;;
5199;SDS011;2619;47.868;11.892;2023-05-07T08:48:51;5.63;;;5.13;;
5199;SDS011;2619;47.868;11.892;2023-05-07T08:51:18;6.80;;;5.33;;
5199;SDS011;2619;47.868;11.892;2023-05-07T08:53:45;5.77;;;4.80;;
5199;SDS011;2619;47.868;11.892;2023-05-07T08:56:13;5.70;;;5.20;;
5199;SDS011;2619;47.868;11.892;2023-05-07T08:58:45;5.90;;;4.90;;
5199;SDS011;2619;47.868;11.892;2023-05-07T09:01:14;5.60;;;5.00;;
5199;SDS011;2619;47.868;11.892;2023-05-07T09:03:42;7.00;;;4.70;;
5199;SDS011;2619;47.868;11.892;2023-05-07T09:06:10;4.90;;;4.40;;
5199;SDS011;2619;47.868;11.892;2023-05-07T09:08:36;5.60;;;4.53;;
5199;SDS011;2619;47.868;11.892;2023-05-07T09:11:02;4.90;;;4.20;;
5199;SDS011;2619;47.868;11.892;2023-05-07T09:13:28;6.70;;;4.53;;
5199;SDS011;2619;47.868;11.892;2023-05-07T09:15:54;6.47;;;4.23;;
5199;SDS011;2619;47.868;11.892;2023-05-07T09:18:20;4.57;;;4.10;;
5199;SDS011;2619;47.868;11.892;2023-05-07T09:20:46;4.13;;;2.90;;
5199;SDS011;2619;47.868;11.892;2023-05-07T09:23:11;4.63;;;4.13;;
5199;SDS011;2619;47.868;11.892;2023-05-07T09:25:37;4.80;;;3.70;;
5199;SDS011;2619;47.868;11.892;2023-05-07T09:28:04;5.10;;;4.40;;
5199;SDS011;2619;47.868;11.892;2023-05-07T09:30:34;6.07;;;5.00;;
5199;SDS011;2619;47.868;11.892;2023-05-07T09:33:01;4.37;;;3.97;;
5199;SDS011;2619;47.868;11.892;2023-05-07T09:35:27;5.07;;;4.07;;
5199;SDS011;2619;47.868;11.892;2023-05-07T09:37:53;5.10;;;4.60;;
5199;SDS011;2619;47.868;11.892;2023-05-07T09:40:22;7.23;;;5.73;;
5199;SDS011;2619;47.868;11.892;2023-05-07T09:42:49;6.10;;;5.50;;
5199;SDS011;2619;47.868;11.892;2023-05-07T09:45:15;4.50;;;4.10;;
5199;SDS011;2619;47.868;11.892;2023-05-07T09:47:42;4.87;;;4.37;;
5199;SDS011;2619;47.868;11.892;2023-05-07T09:50:10;6.30;;;4.43;;
5199;SDS011;2619;47.868;11.892;2023-05-07T09:52:39;5.80;;;5.30;;
5199;SDS011;2619;47.868;11.892;2023-05-07T09:55:06;5.77;;;4.83;;
5199;SDS011;2619;47.868;11.892;2023-05-07T09:57:33;4.63;;;4.20;;
5199;SDS011;2619;47.868;11.892;2023-05-07T09:59:59;5.13;;;4.63;;
5199;SDS011;2619;47.868;11.892;2023-05-07T10:02:29;6.43;;;5.00;;
5199;SDS011;2619;47.868;11.892;2023-05-07T10:04:56;6.50;;;5.20;;
5199;SDS011;2619;47.868;11.892;2023-05-07T10:07:25;5.73;;;4.17;;
5199;SDS011;2619;47.868;11.892;2023-05-07T10:09:51;5.73;;;4.67;;
5199;SDS011;2619;47.868;11.892;2023-05-07T10:12:18;4.23;;;3.50;;
5199;SDS011;2619;47.868;11.892;2023-05-07T10:14:45;5.03;;;4.53;;
5199;SDS011;2619;47.868;11.892;2023-05-07T10:17:11;5.10;;;4.53;;
5199;SDS011;2619;47.868;11.892;2023-05-07T10:19:38;5.80;;;4.30;;
5199;SDS011;2619;47.868;11.892;2023-05-07T10:22:05;6.40;;;5.00;;
5199;SDS011;2619;47.868;11.892;2023-05-07T10:24:33;6.50;;;4.17;;
5199;SDS011;2619;47.868;11.892;2023-05-07T10:27:01;4.60;;;4.10;;
5199;SDS011;2619;47.868;11.892;2023-05-07T10:34:50;6.50;;;3.97;;
5199;SDS011;2619;47.868;11.892;2023-05-07T10:37:20;3.50;;;3.20;;
5199;SDS011;2619;47.868;11.892;2023-05-07T10:39:46;4.23;;;3.50;;
5199;SDS011;2619;47.868;11.892;2023-05-07T10:42:13;4.00;;;3.60;;
5199;SDS011;2619;47.868;11.892;2023-05-07T10:44:39;4.50;;;3.53;;
5199;SDS011;2619;47.868;11.892;2023-05-07T10:47:06;4.10;;;3.70;;
5199;SDS011;2619;47.868;11.892;2023-05-07T10:52:18;3.83;;;3.30;;
5199;SDS011;2619;47.868;11.892;2023-05-07T10:57:46;3.43;;;2.80;;
5199;SDS011;2619;47.868;11.892;2023-05-07T11:05:24;3.97;;;3.27;;
5199;SDS011;2619;47.868;11.892;2023-05-07T11:07:57;3.90;;;3.20;;
5199;SDS011;2619;47.868;11.892;2023-05-07T11:13:19;3.30;;;2.63;;
5199;SDS011;2619;47.868;11.892;2023-05-07T11:16:21;3.20;;;2.80;;
5199;SDS011;2619;47.868;11.892;2023-05-07T11:18:48;3.73;;;2.77;;
5199;SDS011;2619;47.868;11.892;2023-05-07T11:21:31;3.87;;;2.87;;
5199;SDS011;2619;47.868;11.892;2023-05-07T11:23:58;3.67;;;3.10;;
5199;SDS011;2619;47.868;11.892;2023-05-07T11:26:24;4.43;;;3.00;;
5199;SDS011;2619;47.868;11.892;2023-05-07T11:28:50;4.37;;;2.70;;
5199;SDS011;2619;47.868;11.892;2023-05-07T11:31:20;4.30;;;3.07;;
5199;SDS011;2619;47.868;11.892;2023-05-07T11:33:50;3.93;;;3.17;;
5199;SDS011;2619;47.868;11.892;2023-05-07T11:36:17;4.20;;;2.50;;
5199;SDS011;2619;47.868;11.892;2023-05-07T11:38:43;4.07;;;2.80;;
5199;SDS011;2619;47.868;11.892;2023-05-07T11:41:09;3.60;;;3.00;;
5199;SDS011;2619;47.868;11.892;2023-05-07T11:43:35;3.87;;;2.40;;
5199;SDS011;2619;47.868;11.892;2023-05-07T11:46:10;4.37;;;2.50;;
5199;SDS011;2619;47.868;11.892;2023-05-07T11:48:37;3.90;;;2.47;;
5199;SDS011;2619;47.868;11.892;2023-05-07T11:51:04;7.53;;;2.43;;
5199;SDS011;2619;47.868;11.892;2023-05-07T11:53:38;2.80;;;2.50;;
5199;SDS011;2619;47.868;11.892;2023-05-07T11:56:11;4.10;;;2.90;;
5199;SDS011;2619;47.868;11.892;2023-05-07T11:58:39;3.80;;;2.13;;
5199;SDS011;2619;47.868;11.892;2023-05-07T12:01:07;4.77;;;2.50;;
5199;SDS011;2619;47.868;11.892;2023-05-07T12:03:37;3.17;;;2.60;;
5199;SDS011;2619;47.868;11.892;2023-05-07T12:06:07;2.73;;;2.40;;
5199;SDS011;2619;47.868;11.892;2023-05-07T12:08:35;4.90;;;2.40;;
5199;SDS011;2619;47.868;11.892;2023-05-07T12:11:03;3.80;;;2.50;;
5199;SDS011;2619;47.868;11.892;2023-05-07T12:13:31;2.80;;;2.40;;
5199;SDS011;2619;47.868;11.892;2023-05-07T12:15:57;3.03;;;2.50;;
5199;SDS011;2619;47.868;11.892;2023-05-07T12:18:23;3.03;;;2.50;;
5199;SDS011;2619;47.868;11.892;2023-05-07T12:20:49;5.93;;;3.00;;
5199;SDS011;2619;47.868;11.892;2023-05-07T12:23:15;4.43;;;2.53;;
5199;SDS011;2619;47.868;11.892;2023-05-07T12:25:42;2.70;;;2.30;;
5199;SDS011;2619;47.868;11.892;2023-05-07T12:28:18;6.80;;;2.67;;
5199;SDS011;2619;47.868;11.892;2023-05-07T12:30:45;4.22;;;2.88;;
5199;SDS011;2619;47.868;11.892;2023-05-07T12:33:15;4.40;;;2.57;;
5199;SDS011;2619;47.868;11.892;2023-05-07T12:35:49;3.47;;;2.13;;
5199;SDS011;2619;47.868;11.892;2023-05-07T12:38:16;3.80;;;2.67;;
5199;SDS011;2619;47.868;11.892;2023-05-07T12:40:43;2.77;;;2.30;;
5199;SDS011;2619;47.868;11.892;2023-05-07T12:43:25;3.80;;;2.60;;
5199;SDS011;2619;47.868;11.892;2023-05-07T12:45:56;3.77;;;2.70;;
5199;SDS011;2619;47.868;11.892;2023-05-07T12:48:22;3.43;;;2.50;;
5199;SDS011;2619;47.868;11.892;2023-05-07T12:50:52;4.03;;;2.80;;
5199;SDS011;2619;47.868;11.892;2023-05-07T12:53:23;2.70;;;2.43;;
5199;SDS011;2619;47.868;11.892;2023-05-07T12:55:51;3.57;;;2.50;;
5199;SDS011;2619;47.868;11.892;2023-05-07T12:58:20;2.50;;;2.30;;
5199;SDS011;2619;47.868;11.892;2023-05-07T13:00:51;3.17;;;2.30;;
5199;SDS011;2619;47.868;11.892;2023-05-07T13:03:21;3.90;;;2.73;;
5199;SDS011;2619;47.868;11.892;2023-05-07T13:05:50;4.20;;;2.80;;
5199;SDS011;2619;47.868;11.892;2023-05-07T13:08:23;5.70;;;2.50;;
5199;SDS011;2619;47.868;11.892;2023-05-07T13:11:10;3.70;;;2.03;;
5199;SDS011;2619;47.868;11.892;2023-05-07T13:13:37;4.40;;;2.70;;
5199;SDS011;2619;47.868;11.892;2023-05-07T13:16:04;2.80;;;2.20;;
5199;SDS011;2619;47.868;11.892;2023-05-07T13:18:31;3.83;;;2.30;;
5199;SDS011;2619;47.868;11.892;2023-05-07T13:20:58;3.93;;;2.80;;
5199;SDS011;2619;47.868;11.892;2023-05-07T13:23:24;2.73;;;2.13;;
5199;SDS011;2619;47.868;11.892;2023-05-07T13:25:50;3.13;;;2.30;;
5199;SDS011;2619;47.868;11.892;2023-05-07T13:28:17;3.43;;;2.50;;
5199;SDS011;2619;47.868;11.892;2023-05-07T13:30:43;3.57;;;3.27;;
5199;SDS011;2619;47.868;11.892;2023-05-07T13:33:09;3.10;;;2.70;;
5199;SDS011;2619;47.868;11.892;2023-05-07T13:35:35;5.80;;;2.97;;
5199;SDS011;2619;47.868;11.892;2023-05-07T13:38:00;3.03;;;2.67;;
5199;SDS011;2619;47.868;11.892;2023-05-07T13:40:26;4.90;;;3.47;;
5199;SDS011;2619;47.868;11.892;2023-05-07T13:42:51;5.23;;;3.50;;
5199;SDS011;2619;47.868;11.892;2023-05-07T13:45:18;3.60;;;3.30;;
5199;SDS011;2619;47.868;11.892;2023-05-07T13:47:44;4.90;;;3.77;;
5199;SDS011;2619;47.868;11.892;2023-05-07T13:50:10;4.43;;;3.50;;
5199;SDS011;2619;47.868;11.892;2023-05-07T13:52:38;6.67;;;3.67;;
5199;SDS011;2619;47.868;11.892;2023-05-07T13:55:06;3.73;;;3.40;;
5199;SDS011;2619;47.868;11.892;2023-05-07T13:57:32;4.17;;;3.50;;
5199;SDS011;2619;47.868;11.892;2023-05-07T13:59:57;3.70;;;3.30;;
5199;SDS011;2619;47.868;11.892;2023-05-07T14:02:23;6.50;;;3.70;;
5199;SDS011;2619;47.868;11.892;2023-05-07T14:04:48;6.57;;;3.97;;
5199;SDS011;2619;47.868;11.892;2023-05-07T14:07:14;6.17;;;3.50;;
5199;SDS011;2619;47.868;11.892;2023-05-07T14:09:40;4.83;;;4.33;;
5199;SDS011;2619;47.868;11.892;2023-05-07T14:12:05;3.93;;;3.53;;
5199;SDS011;2619;47.868;11.892;2023-05-07T14:14:32;6.20;;;4.00;;
5199;SDS011;2619;47.868;11.892;2023-05-07T14:16:57;3.97;;;3.57;;
5199;SDS011;2619;47.868;11.892;2023-05-07T14:19:23;5.03;;;4.00;;
5199;SDS011;2619;47.868;11.892;2023-05-07T14:21:48;5.87;;;4.00;;
5199;SDS011;2619;47.868;11.892;2023-05-07T14:24:14;4.53;;;3.93;;
5199;SDS011;2619;47.868;11.892;2023-05-07T14:26:39;6.60;;;3.90;;
5199;SDS011;2619;47.868;11.892;2023-05-07T14:29:05;5.50;;;4.10;;
5199;SDS011;2619;47.868;11.892;2023-05-07T14:31:31;4.10;;;3.70;;
5199;SDS011;2619;47.868;11.892;2023-05-07T14:33:57;4.63;;;4.13;;
5199;SDS011;2619;47.868;11.892;2023-05-07T14:36:23;4.57;;;4.17;;
5199;SDS011;2619;47.868;11.892;2023-05-07T14:38:51;3.77;;;3.37;;
5199;SDS011;2619;47.868;11.892;2023-05-07T14:41:18;4.73;;;4.10;;
5199;SDS011;2619;47.868;11.892;2023-05-07T14:43:45;5.97;;;3.70;;
5199;SDS011;2619;47.868;11.892;2023-05-07T14:46:15;4.37;;;3.43;;
5199;SDS011;2619;47.868;11.892;2023-05-07T14:48:42;3.93;;;3.53;;
5199;SDS011;2619;47.868;11.892;2023-05-07T14:51:10;5.20;;;3.57;;
5199;SDS011;2619;47.868;11.892;2023-05-07T14:53:36;4.50;;;4.10;;
5199;SDS011;2619;47.868;11.892;2023-05-07T14:56:01;6.37;;;4.27;;
5199;SDS011;2619;47.868;11.892;2023-05-07T14:58:28;5.43;;;4.30;;
5199;SDS011;2619;47.868;11.892;2023-05-07T15:00:53;7.10;;;4.40;;
5199;SDS011;2619;47.868;11.892;2023-05-07T15:03:19;7.17;;;4.00;;
5199;SDS011;2619;47.868;11.892;2023-05-07T15:05:44;4.87;;;3.90;;
5199;SDS011;2619;47.868;11.892;2023-05-07T15:08:10;5.23;;;3.53;;
5199;SDS011;2619;47.868;11.892;2023-05-07T15:10:36;4.73;;;3.77;;
5199;SDS011;2619;47.868;11.892;2023-05-07T15:13:09;4.70;;;4.17;;